Language selection

My Weather Profile Weather Topics  | 

Western Lake Superior: Past 24 Hour Conditions

 

Thunder Bay Airport

04:00 PM EDT 20 October 2021
Disclaimer

This table is a summary of hourly weather conditions for the past 24 hours.
Please note that these observations might not always be representative of weather conditions over their associated marine area.

Date / Time
(EDT)
Wind(knots) Conditions Visibility(km) Pressure(kPa) Air tempC) Relative humidity(%) Dew pointC) Humidex
20 October 2021
16:00 NE 8 Mostly Cloudy 32 102.0 8 54 -1 *
15:00 N 6 Mostly Cloudy 32 102.1 8 56 0 *
14:00 NNE 8 Partly Cloudy 32 102.2 8 59 0 *
13:00 NW 8 Mostly Cloudy 32 102.3 6 67 0 *
12:00 NNW 9 gust 15 Partly Cloudy 32 102.3 7 67 1 *
11:00 NNE 8 Partly Cloudy 32 102.3 5 69 0 *
10:00 NNE 9 gust 16 Partly Cloudy 32 102.3 5 72 0 *
9:00 NNE 10 Mostly Cloudy 32 102.3 4 73 0 *
8:00 N 5 Mostly Cloudy 32 102.3 6 74 1 *
7:00 NNE 8 Mostly Cloudy 24 102.2 6 74 2 *
6:00 NNE 7 Cloudy 24 102.2 7 74 2 *
5:00 NNE 6 Cloudy 24 102.1 7 74 3 *
4:00 N 8 Cloudy 24 102.1 7 75 3 *
3:00 NNE 9 Cloudy 24 102.0 8 76 4 *
2:00 N 9 gust 17 Mostly Cloudy 24 102.0 8 78 4 *
1:00 NNE 10 gust 19 Mostly Cloudy 24 101.9 8 79 5 *
0:00 N 10 gust 19 Mostly Cloudy 24 101.9 9 77 5 *
19 October 2021
23:00 NNW 10 gust 16 Mostly Cloudy 24 101.8 9 78 6 *
22:00 N 8 Partly Cloudy 24 101.8 10 77 6 *
21:00 N 11 gust 17 Clear 24 101.6 12 75 8 *
20:00 NE 11 Mainly Clear 24 101.4 11 88 9 *
19:00 ESE 3 Partly Cloudy 32 101.2 14 76 10 *
18:00 ENE 9 Mostly Cloudy 32 101.1 17 66 11 *
17:00 NE 8 Partly Cloudy 32 101.0 21 53 11 22
16:00 ENE 2 Mostly Cloudy 32 101.0 23 44 11 25

Zoom-in to make a selection

Map of Great Lakes - Lake Superior marine weather areas Mid Superior - 45001 East Superior - 45004 West Superior - 45006 Slate Island - 45136 Lake Of the Woods - 45148 Kenora Airport Royal Island Armstrong Airport Caribou Island Marathon Airport Pukaskwa National Park Thunder Bay Airport Welcome Island Little Flatland Island Sault Ste. Marie Airport Wawa Airport
Legend:
buoy Buoy
land station Land Station

Great Lakes - Lake Superior Area

Another Region

What we are doing

Date modified: